createdAt,value
2018-02-04T00:02:05.877Z,100419.73
2018-02-04T00:04:31.838Z,100423.14
2018-02-04T00:06:57.808Z,100424.05
2018-02-04T00:09:23.838Z,100428.08
2018-02-04T00:11:49.789Z,100429.59
2018-02-04T00:14:15.749Z,100433.32
2018-02-04T00:16:41.696Z,100434.36
2018-02-04T00:19:07.649Z,100438.53
2018-02-04T00:21:33.703Z,100435.57
2018-02-04T00:23:59.666Z,100438.40
2018-02-04T00:26:25.608Z,100437.13
2018-02-04T00:28:51.593Z,100447.89
2018-02-04T00:31:17.606Z,100446.66
2018-02-04T00:33:43.577Z,100443.94
2018-02-04T00:36:09.526Z,100446.66
2018-02-04T00:38:35.500Z,100454.09
2018-02-04T00:41:01.464Z,100449.38
2018-02-04T00:43:27.417Z,100458.31
2018-02-04T00:45:53.376Z,100455.27
2018-02-04T00:48:19.316Z,100457.19
2018-02-04T00:50:45.279Z,100458.73
2018-02-04T00:53:11.403Z,100462.20
2018-02-04T00:55:37.345Z,100468.33
2018-02-04T00:58:03.309Z,100467.67
2018-02-04T01:00:29.268Z,100475.24
2018-02-04T01:02:55.214Z,100473.16
2018-02-04T01:05:21.171Z,100487.12
2018-02-04T01:07:47.109Z,100484.28
2018-02-04T01:10:13.072Z,100491.76
2018-02-04T01:12:39.013Z,100499.17
2018-02-04T01:15:05.090Z,100504.30
2018-02-04T01:17:31.046Z,100508.68
2018-02-04T01:19:57.000Z,100514.86
2018-02-04T01:22:22.933Z,100524.98
2018-02-04T01:24:48.873Z,100523.52
2018-02-04T01:27:14.822Z,100530.08
2018-02-04T01:29:40.797Z,100528.87
2018-02-04T01:32:06.769Z,100530.89
2018-02-04T01:34:32.696Z,100538.20
2018-02-04T01:36:58.680Z,100551.25
2018-02-04T01:39:24.654Z,100555.11
2018-02-04T01:41:50.600Z,100553.61
2018-02-04T01:44:16.541Z,100559.36
2018-02-04T01:46:42.557Z,100559.23
2018-02-04T01:49:08.501Z,100567.55
2018-02-04T01:51:34.453Z,100570.17
2018-02-04T01:54:00.416Z,100573.92
2018-02-04T01:56:26.368Z,100580.50
2018-02-04T01:58:52.314Z,100581.38
2018-02-04T02:01:18.248Z,100591.71
2018-02-04T02:03:44.219Z,100597.34
2018-02-04T02:06:10.168Z,100596.73
2018-02-04T02:08:36.111Z,100598.80
2018-02-04T02:11:02.069Z,100599.21
2018-02-04T02:13:28.008Z,100598.80
2018-02-04T02:15:53.956Z,100595.45
2018-02-04T02:18:20.021Z,100609.75
2018-02-04T02:20:45.959Z,100609.95
2018-02-04T02:23:11.924Z,100614.75
2018-02-04T02:25:37.865Z,100616.70
2018-02-04T02:28:03.914Z,100618.00
2018-02-04T02:30:29.940Z,100613.16
2018-02-04T02:32:55.878Z,100621.39
2018-02-04T02:35:21.843Z,100630.49
2018-02-04T02:37:47.811Z,100631.39
2018-02-04T02:40:13.757Z,100635.05
2018-02-04T02:42:39.789Z,100641.30
2018-02-04T02:45:05.766Z,100637.97
2018-02-04T02:47:31.705Z,100640.11
2018-02-04T02:49:57.663Z,100643.16
2018-02-04T02:52:23.597Z,100644.84
2018-02-04T02:54:49.541Z,100648.92
2018-02-04T02:57:15.493Z,100652.17
2018-02-04T02:59:41.431Z,100658.22
2018-02-04T03:02:07.416Z,100659.17
2018-02-04T03:04:33.425Z,100664.11
2018-02-04T03:06:59.373Z,100669.18
2018-02-04T03:09:25.326Z,100672.88
2018-02-04T03:11:51.290Z,100689.62
2018-02-04T03:14:17.255Z,100686.05
2018-02-04T03:16:43.329Z,100694.28
2018-02-04T03:19:09.303Z,100694.28
2018-02-04T03:21:35.246Z,100701.67
2018-02-04T03:24:01.210Z,100700.11
2018-02-04T03:26:27.153Z,100702.59
2018-02-04T03:28:53.118Z,100709.98
2018-02-04T03:31:19.066Z,100719.22
2018-02-04T03:33:45.014Z,100714.31
2018-02-04T03:36:10.966Z,100721.02
2018-02-04T03:38:36.913Z,100718.50
2018-02-04T03:41:02.894Z,100719.82
2018-02-04T03:43:28.845Z,100730.03
2018-02-04T03:45:54.830Z,100735.45
2018-02-04T03:48:20.765Z,100735.50
2018-02-04T03:50:46.707Z,100746.36
2018-02-04T03:53:12.668Z,100741.72
2018-02-04T03:55:38.625Z,100750.20
2018-02-04T03:58:04.574Z,100759.70
2018-02-04T04:00:30.517Z,100761.00
2018-02-04T04:02:56.481Z,100771.88
2018-02-04T04:05:22.417Z,100788.11
2018-02-04T04:07:48.386Z,100785.05
2018-02-04T04:10:14.348Z,100793.70
2018-02-04T04:12:40.299Z,100797.45
2018-02-04T04:15:06.238Z,100799.59
2018-02-04T04:17:32.227Z,100807.92
2018-02-04T04:19:58.164Z,100806.06
2018-02-04T04:22:24.139Z,100819.63
2018-02-04T04:24:50.220Z,100825.09
2018-02-04T04:27:16.182Z,100825.03
2018-02-04T04:29:42.140Z,100832.00
2018-02-04T04:32:08.078Z,100836.59
2018-02-04T04:34:34.041Z,100844.44
2018-02-04T04:37:00.006Z,100848.78
2018-02-04T04:39:25.957Z,100850.33
2018-02-04T04:41:51.916Z,100852.84
2018-02-04T04:44:17.961Z,100854.59
2018-02-04T04:46:43.981Z,100858.75
2018-02-04T04:49:09.929Z,100863.62
2018-02-04T04:51:35.877Z,100875.72
2018-02-04T04:54:01.837Z,100877.55
2018-02-04T04:56:27.812Z,100883.12
2018-02-04T04:58:53.769Z,100887.30
2018-02-04T05:01:19.735Z,100889.00
2018-02-04T05:03:45.697Z,100889.92
2018-02-04T05:06:11.641Z,100890.83
2018-02-04T05:08:37.597Z,100892.14
2018-02-04T05:11:03.532Z,100886.73
2018-02-04T05:13:29.501Z,100892.28
2018-02-04T05:15:55.440Z,100897.48
2018-02-04T05:18:21.393Z,100898.61
2018-02-04T05:20:47.337Z,100908.92
2018-02-04T05:23:13.297Z,100911.83
2018-02-04T05:25:39.260Z,100919.18
2018-02-04T05:28:05.205Z,100926.38
2018-02-04T05:30:31.185Z,100929.42
2018-02-04T05:32:57.131Z,100933.13
2018-02-04T05:35:23.073Z,100940.50
2018-02-04T05:37:49.025Z,100941.20
2018-02-04T05:40:14.968Z,100953.95
2018-02-04T05:42:40.909Z,100956.53
2018-02-04T05:45:06.871Z,100954.46
2018-02-04T05:47:32.822Z,100962.28
2018-02-04T05:49:58.767Z,100964.88
2018-02-04T05:52:24.718Z,100967.65
2018-02-04T05:54:50.664Z,100968.67
2018-02-04T05:57:16.623Z,100969.50
2018-02-04T05:59:42.577Z,100976.01
2018-02-04T06:02:08.518Z,100984.70
2018-02-04T06:04:34.464Z,100995.75
2018-02-04T06:07:00.418Z,100994.14
2018-02-04T06:09:26.369Z,100993.98
2018-02-04T06:11:52.318Z,101009.63
2018-02-04T06:14:18.266Z,101009.31
2018-02-04T06:16:44.213Z,101022.56
2018-02-04T06:19:10.216Z,101029.97
2018-02-04T06:21:36.169Z,101035.56
2018-02-04T06:24:02.118Z,101032.86
2018-02-04T06:26:28.054Z,101041.27
2018-02-04T06:28:53.988Z,101047.30
2018-02-04T06:31:19.946Z,101053.33
2018-02-04T06:33:45.946Z,101056.11
2018-02-04T06:36:11.928Z,101056.80
2018-02-04T06:38:37.866Z,101065.56
2018-02-04T06:41:03.924Z,101056.45
2018-02-04T06:43:29.886Z,101065.08
2018-02-04T06:45:55.837Z,101066.11
2018-02-04T06:48:21.804Z,101083.73
2018-02-04T06:50:47.743Z,101078.95
2018-02-04T06:53:13.717Z,101087.28
2018-02-04T06:55:39.681Z,101089.03
2018-02-04T06:58:05.637Z,101102.23
2018-02-04T07:00:31.581Z,101104.27
2018-02-04T07:02:57.549Z,101110.46
2018-02-04T07:05:23.498Z,101115.92
2018-02-04T07:07:49.442Z,101121.45
2018-02-04T07:10:15.398Z,101130.42
2018-02-04T07:12:41.359Z,101132.36
2018-02-04T07:15:07.306Z,101141.07
2018-02-04T07:17:33.353Z,101136.16
2018-02-04T07:19:59.301Z,101146.15
2018-02-04T07:22:25.251Z,101144.88
2018-02-04T07:24:51.229Z,101160.06
2018-02-04T07:27:17.188Z,101154.83
2018-02-04T07:29:43.161Z,101160.62
2018-02-04T07:32:09.101Z,101170.34
2018-02-04T07:34:35.040Z,101172.36
2018-02-04T07:37:01.002Z,101176.11
2018-02-04T07:39:26.961Z,101178.18
2018-02-04T07:41:52.926Z,101181.87
2018-02-04T07:44:18.870Z,101179.66
2018-02-04T07:46:44.913Z,101181.63
2018-02-04T07:49:10.863Z,101191.71
2018-02-04T07:51:36.846Z,101186.48
2018-02-04T07:54:02.830Z,101192.63
2018-02-04T07:56:28.764Z,101193.61
2018-02-04T07:58:54.700Z,101197.74
2018-02-04T08:01:20.654Z,101197.33
2018-02-04T08:03:46.597Z,101205.00
2018-02-04T08:06:12.540Z,101207.41
2018-02-04T08:08:38.504Z,101203.17
2018-02-04T08:11:04.454Z,101210.55
2018-02-04T08:13:30.435Z,101215.89
2018-02-04T08:15:56.382Z,101211.42
2018-02-04T08:18:22.349Z,101212.20
2018-02-04T08:20:48.297Z,101225.53
2018-02-04T08:23:14.264Z,101225.38
2018-02-04T08:25:40.206Z,101218.80
2018-02-04T08:28:06.150Z,101213.64
2018-02-04T08:30:32.689Z,101224.94
2018-02-04T08:32:58.658Z,101226.14
2018-02-04T08:35:24.610Z,101226.02
2018-02-04T08:37:50.561Z,101225.41
2018-02-04T08:40:16.517Z,101226.69
2018-02-04T08:42:42.470Z,101236.36
2018-02-04T08:45:08.429Z,101231.59
2018-02-04T08:47:34.388Z,101235.99
2018-02-04T08:50:00.441Z,101241.47
2018-02-04T08:52:26.493Z,101245.30
2018-02-04T08:54:52.430Z,101236.16
2018-02-04T08:57:18.429Z,101240.22
2018-02-04T08:59:44.484Z,101246.81
2018-02-04T09:02:10.445Z,101252.61
2018-02-04T09:04:36.392Z,101253.78
2018-02-04T09:07:02.353Z,101259.73
2018-02-04T09:09:28.282Z,101266.50
2018-02-04T09:11:54.300Z,101266.61
2018-02-04T09:14:20.269Z,101267.18
2018-02-04T09:16:46.176Z,101272.87
2018-02-04T09:19:12.153Z,101278.33
2018-02-04T09:21:38.129Z,101277.12
2018-02-04T09:24:04.069Z,101278.92
2018-02-04T09:26:30.026Z,101276.39
2018-02-04T09:28:55.969Z,101278.92
2018-02-04T09:31:21.938Z,101278.85
2018-02-04T09:33:47.945Z,101282.99
2018-02-04T09:36:14.054Z,101290.56
2018-02-04T09:38:39.998Z,101290.22
2018-02-04T09:41:05.952Z,101297.83
2018-02-04T09:43:31.922Z,101297.08
2018-02-04T09:45:57.869Z,101302.05
2018-02-04T09:48:23.838Z,101306.03
2018-02-04T09:50:49.816Z,101307.31
2018-02-04T09:53:15.821Z,101311.42
2018-02-04T09:55:41.771Z,101315.94
2018-02-04T09:58:07.704Z,101318.09
2018-02-04T10:00:33.638Z,101315.83
2018-02-04T10:02:59.618Z,101321.59
2018-02-04T10:05:25.572Z,101325.31
2018-02-04T10:07:51.519Z,101327.08
2018-02-04T10:10:17.480Z,101330.17
2018-02-04T10:12:43.510Z,101329.20
2018-02-04T10:15:09.469Z,101334.28
2018-02-04T10:17:35.416Z,101339.22
2018-02-04T10:20:01.421Z,101337.98
2018-02-04T10:22:27.401Z,101343.47
2018-02-04T10:24:53.351Z,101344.81
2018-02-04T10:27:19.306Z,101346.30
2018-02-04T10:29:45.293Z,101348.77
2018-02-04T10:32:11.241Z,101356.84
2018-02-04T10:34:37.176Z,101363.56
2018-02-04T10:37:03.142Z,101356.27
2018-02-04T10:39:29.088Z,101352.87
2018-02-04T10:41:55.035Z,101350.99
2018-02-04T10:44:21.048Z,101358.94
2018-02-04T10:46:47.003Z,101354.48
2018-02-04T10:49:12.972Z,101358.45
2018-02-04T10:51:38.913Z,101359.80
2018-02-04T10:54:04.894Z,101358.89
2018-02-04T10:56:30.858Z,101365.86
2018-02-04T10:58:56.914Z,101364.97
2018-02-04T11:01:22.963Z,101375.23
2018-02-04T11:03:48.902Z,101375.98
2018-02-04T11:06:14.877Z,101378.52
2018-02-04T11:08:40.924Z,101377.11
2018-02-04T11:11:06.894Z,101380.52
2018-02-04T11:13:32.886Z,101383.01
2018-02-04T11:15:58.920Z,101381.16
2018-02-04T11:18:24.868Z,101381.64
2018-02-04T11:20:50.828Z,101386.37
2018-02-04T11:23:16.774Z,101383.41
2018-02-04T11:25:42.708Z,101382.25
2018-02-04T11:28:08.681Z,101384.30
2018-02-04T11:30:34.632Z,101381.97
2018-02-04T11:33:00.596Z,101388.79
2018-02-04T11:35:26.567Z,101388.83
2018-02-04T11:37:52.489Z,101390.56
2018-02-04T11:40:18.441Z,101395.38
2018-02-04T11:42:44.402Z,101398.69
2018-02-04T11:45:10.431Z,101406.53
2018-02-04T11:47:36.462Z,101411.08
2018-02-04T11:50:02.405Z,101400.79
2018-02-04T11:52:28.362Z,101404.52
2018-02-04T11:54:54.338Z,101406.36
2018-02-04T11:57:20.280Z,101409.78
2018-02-04T11:59:46.242Z,101406.24
2018-02-04T12:02:12.314Z,101409.41
2018-02-04T12:04:38.274Z,101408.76
2018-02-04T12:07:04.225Z,101415.14
2018-02-04T12:09:30.192Z,101421.02
2018-02-04T12:11:56.144Z,101418.00
2018-02-04T12:14:22.117Z,101421.55
2018-02-04T12:16:48.089Z,101423.66
2018-02-04T12:19:14.027Z,101417.97
2018-02-04T12:21:39.979Z,101422.57
2018-02-04T12:24:06.020Z,101423.24
2018-02-04T12:26:32.006Z,101423.29
2018-02-04T12:28:57.977Z,101432.14
2018-02-04T12:31:24.082Z,101432.17
2018-02-04T12:33:50.034Z,101432.40
2018-02-04T12:36:15.996Z,101442.27
2018-02-04T12:38:41.954Z,101448.06
2018-02-04T12:41:07.913Z,101446.11
2018-02-04T12:43:33.877Z,101442.34
2018-02-04T12:45:59.824Z,101449.28
2018-02-04T12:48:25.956Z,101454.26
2018-02-04T12:50:51.934Z,101455.20
2018-02-04T12:53:17.905Z,101448.80
2018-02-04T12:55:44.016Z,101449.75
2018-02-04T12:58:10.059Z,101455.36
2018-02-04T13:00:36.183Z,101455.02
2018-02-04T13:03:02.238Z,101458.91
2018-02-04T13:05:28.229Z,101456.95
2018-02-04T13:07:54.190Z,101457.92
2018-02-04T13:10:20.147Z,101465.55
2018-02-04T13:12:46.105Z,101465.52
2018-02-04T13:15:12.058Z,101470.16
2018-02-04T13:17:38.010Z,101469.33
2018-02-04T13:20:03.975Z,101468.13
2018-02-04T13:22:29.963Z,101472.41
2018-02-04T13:24:56.325Z,101478.38
2018-02-04T13:27:22.302Z,101474.05
2018-02-04T13:29:48.253Z,101478.80
2018-02-04T13:32:14.242Z,101486.18
2018-02-04T13:34:40.190Z,101484.00
2018-02-04T13:37:06.153Z,101483.88
2018-02-04T13:39:32.137Z,101483.66
2018-02-04T13:41:58.094Z,101486.78
2018-02-04T13:44:24.138Z,101489.34
2018-02-04T13:46:50.095Z,101494.90
2018-02-04T13:49:16.043Z,101496.29
2018-02-04T13:51:41.993Z,101496.59
2018-02-04T13:54:07.970Z,101497.53
2018-02-04T13:56:33.945Z,101503.12
2018-02-04T13:58:59.901Z,101503.16
2018-02-04T14:01:25.939Z,101502.62
2018-02-04T14:03:51.946Z,101502.14
2018-02-04T14:06:17.910Z,101514.08
2018-02-04T14:08:44.027Z,101513.95
2018-02-04T14:11:10.059Z,101511.81
2018-02-04T14:13:35.997Z,101520.05
2018-02-04T14:16:01.981Z,101518.45
2018-02-04T14:18:27.957Z,101521.06
2018-02-04T14:20:53.893Z,101518.07
2018-02-04T14:23:19.897Z,101518.72
2018-02-04T14:25:45.837Z,101522.89
2018-02-04T14:28:11.805Z,101528.48
2018-02-04T14:30:37.783Z,101531.91
2018-02-04T14:33:03.773Z,101531.63
2018-02-04T14:35:29.758Z,101535.25
2018-02-04T14:37:55.706Z,101541.09
2018-02-04T14:40:21.673Z,101540.62
2018-02-04T14:42:47.626Z,101545.16
2018-02-04T14:45:13.569Z,101543.38
2018-02-04T14:47:39.546Z,101547.15
2018-02-04T14:50:05.571Z,101548.76
2018-02-04T14:52:31.513Z,101553.38
2018-02-04T14:54:57.649Z,101556.34
2018-02-04T14:57:23.615Z,101552.22
2018-02-04T14:59:49.565Z,101558.69
2018-02-04T15:02:15.525Z,101556.39
2018-02-04T15:04:41.469Z,101566.39
2018-02-04T15:07:07.434Z,101560.65
2018-02-04T15:09:33.437Z,101561.73
2018-02-04T15:11:59.368Z,101570.27
2018-02-04T15:14:25.329Z,101572.97
2018-02-04T15:16:51.394Z,101572.91
2018-02-04T15:19:17.338Z,101574.11
2018-02-04T15:21:43.285Z,101583.05
2018-02-04T15:24:09.246Z,101584.28
2018-02-04T15:26:35.189Z,101589.21
2018-02-04T15:29:01.135Z,101594.67
2018-02-04T15:31:27.142Z,101593.16
2018-02-04T15:33:53.185Z,101595.68
2018-02-04T15:36:19.201Z,101595.32
2018-02-04T15:38:45.158Z,101601.67
2018-02-04T15:41:11.130Z,101601.91
2018-02-04T15:43:37.073Z,101608.76
2018-02-04T15:46:03.050Z,101610.48
2018-02-04T15:48:29.010Z,101613.42
2018-02-04T15:50:54.962Z,101619.29
2018-02-04T15:53:20.922Z,101610.50
2018-02-04T15:55:46.886Z,101621.74
2018-02-04T15:58:12.828Z,101624.58
2018-02-04T16:00:38.770Z,101625.11
2018-02-04T16:03:04.737Z,101628.97
2018-02-04T16:05:30.685Z,101631.09
2018-02-04T16:07:56.646Z,101635.46
2018-02-04T16:10:22.597Z,101638.88
2018-02-04T16:12:48.562Z,101644.96
2018-02-04T16:15:14.530Z,101652.50
2018-02-04T16:17:40.568Z,101646.97
2018-02-04T16:20:06.522Z,101646.52
2018-02-04T16:22:32.541Z,101655.93
2018-02-04T16:24:58.510Z,101652.45
2018-02-04T16:27:24.475Z,101652.26
2018-02-04T16:29:50.532Z,101653.28
2018-02-04T16:32:16.479Z,101659.75
2018-02-04T16:34:42.443Z,101667.78
2018-02-04T16:37:08.502Z,101658.78
2018-02-04T16:39:34.456Z,101659.14
2018-02-04T16:42:00.402Z,101661.98
2018-02-04T16:44:26.369Z,101654.25
2018-02-04T16:46:52.405Z,101660.42
2018-02-04T16:49:18.437Z,101661.00
2018-02-04T16:51:44.395Z,101660.48
2018-02-04T16:54:10.418Z,101666.00
2018-02-04T16:56:36.356Z,101669.59
2018-02-04T16:59:02.306Z,101673.94
2018-02-04T17:01:28.260Z,101667.98
2018-02-04T17:03:54.305Z,101676.86
2018-02-04T17:11:37.621Z,101684.72
2018-02-04T17:16:38.752Z,101691.67
2018-02-04T17:19:04.798Z,101691.26
2018-02-04T17:24:02.326Z,101695.58
2018-02-04T17:26:28.278Z,101698.52
2018-02-04T17:28:54.255Z,101700.34
2018-02-04T17:31:20.286Z,101700.20
2018-02-04T17:33:46.233Z,101699.02
2018-02-04T17:36:12.204Z,101703.77
2018-02-04T17:38:38.189Z,101713.62
2018-02-04T17:41:04.164Z,101718.48
2018-02-04T17:43:30.120Z,101716.56
2018-02-04T17:45:56.065Z,101722.80
2018-02-04T17:48:22.010Z,101723.95
2018-02-04T17:50:47.965Z,101721.39
2018-02-04T17:53:13.930Z,101723.12
2018-02-04T17:55:39.893Z,101727.95
2018-02-04T17:58:05.829Z,101727.53
2018-02-04T18:00:31.783Z,101725.34
2018-02-04T18:02:57.927Z,101727.95
2018-02-04T18:05:23.879Z,101731.84
2018-02-04T18:07:49.896Z,101733.64
2018-02-04T18:10:15.870Z,101733.12
2018-02-04T18:12:41.809Z,101741.25
2018-02-04T18:15:07.793Z,101742.64
2018-02-04T18:17:33.726Z,101744.55
2018-02-04T18:19:59.701Z,101744.88
2018-02-04T18:22:25.653Z,101743.14
2018-02-04T18:24:51.641Z,101742.75
2018-02-04T18:27:17.600Z,101753.03
2018-02-04T18:29:43.558Z,101749.01
2018-02-04T18:32:09.617Z,101750.26
2018-02-04T18:34:35.542Z,101751.89
2018-02-04T18:37:01.489Z,101754.08
2018-02-04T18:39:27.525Z,101754.32
2018-02-04T18:41:53.498Z,101767.92
2018-02-04T18:44:19.457Z,101758.63
2018-02-04T18:46:45.433Z,101766.25
2018-02-04T18:49:11.373Z,101770.32
2018-02-04T18:51:37.381Z,101772.57
2018-02-04T18:54:03.338Z,101774.52
2018-02-04T18:56:29.285Z,101777.64
2018-02-04T18:58:55.273Z,101786.70
2018-02-04T19:01:21.228Z,101787.56
2018-02-04T19:03:47.232Z,101787.52
2018-02-04T19:06:13.233Z,101787.14
2018-02-04T19:08:39.210Z,101785.34
2018-02-04T19:11:05.195Z,101782.84
2018-02-04T19:13:31.146Z,101782.28
2018-02-04T19:15:57.082Z,101789.30
2018-02-04T19:18:23.296Z,101793.84
2018-02-04T19:20:49.257Z,101791.41
2018-02-04T19:23:15.201Z,101798.73
2018-02-04T19:25:41.185Z,101803.27
2018-02-04T19:28:07.121Z,101804.59
2018-02-04T19:30:33.113Z,101810.94
2018-02-04T19:32:59.166Z,101806.33
2018-02-04T19:35:25.180Z,101810.38
2018-02-04T19:37:51.201Z,101812.44
2018-02-04T19:40:17.237Z,101816.07
2018-02-04T19:42:43.277Z,101817.05
2018-02-04T19:45:09.290Z,101815.38
2018-02-04T19:47:35.277Z,101818.92
2018-02-04T19:50:01.234Z,101817.35
2018-02-04T19:52:27.196Z,101820.58
2018-02-04T19:54:53.136Z,101819.75
2018-02-04T19:57:19.093Z,101819.58
2018-02-04T19:59:45.026Z,101819.75
2018-02-04T20:02:10.973Z,101827.49
2018-02-04T20:04:37.027Z,101832.92
2018-02-04T20:07:02.977Z,101827.84
2018-02-04T20:09:28.962Z,101834.42
2018-02-04T20:11:54.934Z,101840.35
2018-02-04T20:14:20.889Z,101834.77
2018-02-04T20:16:46.855Z,101838.97
2018-02-04T20:19:12.802Z,101837.38
2018-02-04T20:21:38.818Z,101848.58
2018-02-04T20:24:04.801Z,101845.98
2018-02-04T20:26:30.735Z,101844.91
2018-02-04T20:28:56.707Z,101852.56
2018-02-04T20:31:22.650Z,101851.46
2018-02-04T20:33:48.601Z,101850.84
2018-02-04T20:36:14.573Z,101859.23
2018-02-04T20:38:40.537Z,101859.98
2018-02-04T20:41:06.525Z,101865.27
2018-02-04T20:43:32.477Z,101866.23
2018-02-04T20:45:58.493Z,101865.52
2018-02-04T20:48:24.451Z,101865.48
2018-02-04T20:50:50.653Z,101868.03
2018-02-04T20:53:16.682Z,101874.41
2018-02-04T20:55:42.641Z,101870.50
2018-02-04T20:58:08.613Z,101873.06
2018-02-04T21:00:34.638Z,101876.72
2018-02-04T21:03:00.834Z,101878.33
2018-02-04T21:05:26.798Z,101879.69
2018-02-04T21:07:52.776Z,101874.33
2018-02-04T21:10:18.733Z,101877.86
2018-02-04T21:12:44.692Z,101881.82
2018-02-04T21:15:10.642Z,101889.70
2018-02-04T21:17:36.667Z,101890.23
2018-02-04T21:20:02.767Z,101887.65
2018-02-04T21:22:28.714Z,101895.06
2018-02-04T21:24:54.670Z,101892.95
2018-02-04T21:27:20.660Z,101895.59
2018-02-04T21:29:46.617Z,101899.73
2018-02-04T21:32:12.685Z,101900.59
2018-02-04T21:34:38.778Z,101900.33
2018-02-04T21:37:04.736Z,101903.78
2018-02-04T21:39:30.676Z,101896.95
2018-02-04T21:41:56.637Z,101899.93
2018-02-04T21:44:22.573Z,101909.41
2018-02-04T21:46:48.529Z,101904.86
2018-02-04T21:49:14.480Z,101910.66
2018-02-04T21:51:40.437Z,101911.13
2018-02-04T21:54:06.417Z,101914.05
2018-02-04T21:56:32.373Z,101910.16
2018-02-04T21:58:58.317Z,101909.17
2018-02-04T22:01:24.316Z,101904.81
2018-02-04T22:03:50.233Z,101910.55
2018-02-04T22:06:16.201Z,101900.09
2018-02-04T22:08:42.149Z,101904.05
2018-02-04T22:11:08.121Z,101902.67
2018-02-04T22:13:34.080Z,101905.53
2018-02-04T22:16:00.024Z,101910.05
2018-02-04T22:18:26.061Z,101912.70
2018-02-04T22:20:52.011Z,101912.47
2018-02-04T22:23:17.957Z,101907.34
2018-02-04T22:25:43.896Z,101907.09
2018-02-04T22:28:09.897Z,101907.59
2018-02-04T22:30:35.846Z,101913.28
2018-02-04T22:33:01.816Z,101916.81
2018-02-04T22:35:27.849Z,101919.70
2018-02-04T22:37:53.798Z,101921.69
2018-02-04T22:40:19.773Z,101923.27
2018-02-04T22:42:45.722Z,101929.11
2018-02-04T22:45:11.734Z,101928.05
2018-02-04T22:47:37.785Z,101925.47
2018-02-04T22:50:03.756Z,101926.41
2018-02-04T22:52:29.700Z,101922.54
2018-02-04T22:54:55.649Z,101920.47
2018-02-04T22:57:21.608Z,101921.34
2018-02-04T22:59:47.610Z,101918.72
2018-02-04T23:02:13.584Z,101921.09
2018-02-04T23:04:39.528Z,101918.80
2018-02-04T23:07:05.513Z,101924.67
2018-02-04T23:09:31.453Z,101925.63
2018-02-04T23:11:57.432Z,101924.41
2018-02-04T23:14:23.393Z,101933.31
2018-02-04T23:16:49.413Z,101925.95
2018-02-04T23:19:15.401Z,101924.30
2018-02-04T23:21:41.350Z,101924.00
2018-02-04T23:24:07.309Z,101930.23
2018-02-04T23:26:33.253Z,101929.78
2018-02-04T23:28:59.198Z,101927.30
2018-02-04T23:31:25.175Z,101922.91
2018-02-04T23:33:51.184Z,101928.77
2018-02-04T23:36:17.274Z,101923.80
2018-02-04T23:38:43.249Z,101922.14
2018-02-04T23:41:09.193Z,101922.64
2018-02-04T23:43:35.140Z,101914.41
2018-02-04T23:46:01.143Z,101921.65
2018-02-04T23:48:27.076Z,101923.20
2018-02-04T23:50:53.025Z,101920.26
2018-02-04T23:53:18.980Z,101931.73
2018-02-04T23:55:44.922Z,101933.45
2018-02-04T23:58:10.880Z,101927.44
